createdAt,value
2023-04-17T00:03:34.611Z,10.868476
2023-04-17T00:08:36.153Z,10.19738
2023-04-17T00:13:37.458Z,10.180446
2023-04-17T00:18:38.850Z,10.001884
2023-04-17T00:23:40.270Z,10.046284
2023-04-17T00:28:41.590Z,9.821654
2023-04-17T00:33:43.086Z,9.389614
2023-04-17T00:38:44.460Z,10.265188
2023-04-17T00:43:45.875Z,9.98936
2023-04-17T00:48:47.356Z,9.940374
2023-04-17T00:53:48.654Z,9.575246
2023-04-17T00:58:49.953Z,9.69676
2023-04-17T01:03:51.530Z,10.424332
2023-04-17T01:08:53.103Z,10.081158
2023-04-17T01:13:54.512Z,9.765884
2023-04-17T01:18:56.142Z,10.776788
2023-04-17T01:23:57.673Z,10.197666
2023-04-17T01:28:59.251Z,10.362388
2023-04-17T01:34:00.858Z,10.279424
2023-04-17T01:39:02.530Z,9.466242
2023-04-17T01:44:04.141Z,10.027424
2023-04-17T01:49:05.440Z,10.130864
2023-04-17T01:54:06.891Z,9.18496
2023-04-17T01:59:08.461Z,9.586278
2023-04-17T02:04:10.181Z,10.092748
2023-04-17T02:09:11.998Z,9.635698
2023-04-17T02:14:13.553Z,9.496082
2023-04-17T02:19:15.285Z,8.628012
2023-04-17T02:24:16.822Z,8.570654
2023-04-17T02:29:18.313Z,9.074626
2023-04-17T02:34:19.594Z,9.006222
2023-04-17T02:39:21.141Z,8.304542
2023-04-17T02:44:22.690Z,9.078602
2023-04-17T02:49:24.247Z,9.472688
2023-04-17T02:54:25.890Z,9.321768
2023-04-17T02:59:27.194Z,9.096256
2023-04-17T03:04:28.487Z,8.977102
2023-04-17T03:09:30.050Z,8.928116
2023-04-17T03:14:31.626Z,8.710108
2023-04-17T03:19:33.187Z,8.60314
2023-04-17T03:24:34.471Z,8.043288
2023-04-17T03:29:36.256Z,8.275246
2023-04-17T03:34:37.606Z,9.480478
2023-04-17T03:39:38.908Z,8.887354
2023-04-17T03:44:40.381Z,8.834554
2023-04-17T03:49:41.885Z,8.512834
2023-04-17T03:54:43.215Z,8.466332
2023-04-17T03:59:44.789Z,8.625204
2023-04-17T04:04:46.582Z,8.513554
2023-04-17T04:09:48.004Z,8.580914
2023-04-17T04:14:49.663Z,8.530164
2023-04-17T04:19:51.298Z,9.112976
2023-04-17T04:24:52.901Z,7.783636
2023-04-17T04:29:54.560Z,8.628136
2023-04-17T04:34:56.166Z,8.456468
2023-04-17T04:39:57.545Z,8.003842
2023-04-17T04:44:59.167Z,8.42823
2023-04-17T04:50:01.030Z,8.419124
2023-04-17T04:55:02.606Z,8.121394
2023-04-17T05:00:04.471Z,8.368088
2023-04-17T05:05:06.278Z,8.667296
2023-04-17T05:10:07.929Z,9.291752
2023-04-17T05:15:09.534Z,9.201732
2023-04-17T05:20:11.258Z,9.293244
2023-04-17T05:25:12.839Z,9.681318
2023-04-17T05:30:14.452Z,9.865796
2023-04-17T05:35:16.085Z,10.216922
2023-04-17T05:40:17.698Z,10.411984
2023-04-17T05:45:19.286Z,10.2509
2023-04-17T05:50:21.116Z,11.03849
2023-04-17T05:55:22.711Z,10.805474
2023-04-17T06:00:24.341Z,11.627542
2023-04-17T06:05:26.055Z,11.56207
2023-04-17T06:10:27.781Z,12.560854
2023-04-17T06:15:29.488Z,13.197252
2023-04-17T06:20:31.197Z,13.059452
2023-04-17T06:25:32.660Z,14.037002
2023-04-17T06:30:34.268Z,14.161028
2023-04-17T06:35:35.766Z,14.504296
2023-04-17T06:40:37.230Z,15.616036
2023-04-17T06:45:38.676Z,15.708716
2023-04-17T06:50:40.006Z,16.11184
2023-04-17T06:55:41.340Z,16.700596
2023-04-17T07:00:42.597Z,16.582934
2023-04-17T07:05:44.121Z,16.74543
2023-04-17T07:10:45.384Z,16.737492
2023-04-17T07:15:46.773Z,17.485242
2023-04-17T07:20:48.365Z,18.006734
2023-04-17T07:25:49.832Z,17.635212
2023-04-17T07:30:51.336Z,18.110378
2023-04-17T07:35:52.813Z,18.397252
2023-04-17T07:40:54.335Z,19.244848
2023-04-17T07:45:55.944Z,19.27865
2023-04-17T07:50:57.563Z,19.289166
2023-04-17T07:55:59.035Z,20.617682
2023-04-17T08:01:00.484Z,20.25171
2023-04-17T08:06:02.187Z,20.327442
2023-04-17T08:11:03.787Z,20.043838
2023-04-17T08:16:05.355Z,21.158918
2023-04-17T08:21:07.023Z,21.084136
2023-04-17T08:26:10.007Z,22.366706
2023-04-17T08:31:11.724Z,21.739262
2023-04-17T08:36:13.369Z,21.529232
2023-04-17T08:41:14.934Z,21.9421
2023-04-17T08:46:16.558Z,21.135266
2023-04-17T08:51:18.270Z,23.10116
2023-04-17T08:56:19.824Z,22.703232
2023-04-17T09:01:21.454Z,22.662618
2023-04-17T09:06:23.152Z,23.006892
2023-04-17T09:11:24.731Z,22.669878
2023-04-17T09:16:26.341Z,21.782766
2023-04-17T09:21:28.039Z,22.055528
2023-04-17T09:26:29.623Z,21.54443
2023-04-17T09:31:31.196Z,21.342528
2023-04-17T09:36:32.886Z,23.194926
2023-04-17T09:41:34.670Z,22.738282
2023-04-17T09:46:36.012Z,24.351002
2023-04-17T09:51:37.620Z,22.626808
2023-04-17T09:56:39.049Z,23.731346
2023-04-17T10:01:40.380Z,23.162644
2023-04-17T10:06:41.835Z,23.352876
2023-04-17T10:11:43.149Z,24.022658
2023-04-17T10:16:44.733Z,23.836442
2023-04-17T10:21:46.533Z,24.563596
2023-04-17T10:26:47.996Z,24.674826
2023-04-17T10:31:49.402Z,23.135478
2023-04-17T10:36:50.790Z,24.555848
2023-04-17T10:41:52.067Z,23.221984
2023-04-17T10:46:53.406Z,24.003878
2023-04-17T10:51:54.903Z,24.214614
2023-04-17T10:56:56.345Z,23.40516
2023-04-17T11:01:58.056Z,23.771946
2023-04-17T11:07:00.028Z,23.885822
2023-04-17T11:12:01.873Z,23.614864
2023-04-17T11:17:03.829Z,23.51928
2023-04-17T11:22:05.365Z,23.416694
2023-04-17T11:27:06.849Z,24.350798
2023-04-17T11:32:08.322Z,24.109652
2023-04-17T11:37:09.890Z,24.778308
2023-04-17T11:42:11.486Z,24.717394
2023-04-17T11:47:13.085Z,24.379986
2023-04-17T11:52:16.493Z,23.975178
2023-04-17T11:57:19.456Z,23.831584
2023-04-17T12:02:21.244Z,24.575714
2023-04-17T12:07:22.934Z,25.489546
2023-04-17T12:12:24.561Z,23.398592
2023-04-17T12:17:26.203Z,24.842506
2023-04-17T12:22:27.886Z,25.099636
2023-04-17T12:27:29.518Z,24.417696
2023-04-17T12:32:31.155Z,24.41235
2023-04-17T12:37:32.998Z,25.193172
2023-04-17T12:42:42.712Z,25.513618
2023-04-17T12:47:50.685Z,24.548304
2023-04-17T12:52:52.325Z,25.290236
2023-04-17T12:57:53.748Z,24.696402
2023-04-17T13:02:55.532Z,23.752772
2023-04-17T13:07:57.271Z,23.934822
2023-04-17T13:12:58.648Z,24.632896
2023-04-17T13:18:00.052Z,23.205022
2023-04-17T13:23:01.663Z,23.756938
2023-04-17T13:28:03.212Z,23.318898
2023-04-17T13:33:04.649Z,23.397018
2023-04-17T13:38:06.369Z,23.960862
2023-04-17T13:43:07.928Z,23.613494
2023-04-17T13:48:09.621Z,23.910736
2023-04-17T13:53:11.764Z,23.510202
2023-04-17T13:58:13.345Z,23.548604
2023-04-17T14:03:14.998Z,23.670676
2023-04-17T14:08:16.594Z,24.35875
2023-04-17T14:13:18.289Z,22.99202
2023-04-17T14:18:19.861Z,23.270536
2023-04-17T14:23:22.149Z,23.053626
2023-04-17T14:28:23.700Z,23.012578
2023-04-17T14:33:25.020Z,23.06687
2023-04-17T14:38:26.628Z,22.998696
2023-04-17T14:43:28.326Z,23.21851
2023-04-17T14:48:31.351Z,23.171478
2023-04-17T14:53:35.272Z,22.50612
2023-04-17T14:58:36.844Z,22.645154
2023-04-17T15:03:38.206Z,22.311912
2023-04-17T15:08:39.786Z,22.24747
2023-04-17T15:13:41.135Z,22.060088
2023-04-17T15:18:42.514Z,21.938504
2023-04-17T15:23:43.883Z,21.712964
2023-04-17T15:28:45.444Z,21.729302
2023-04-17T15:33:46.985Z,21.482132
2023-04-17T15:38:48.570Z,21.215354
2023-04-17T15:43:50.136Z,21.01143
2023-04-17T15:49:06.834Z,20.748628
2023-04-17T15:54:09.812Z,19.799694
2023-04-17T15:59:11.622Z,19.612108
2023-04-17T16:04:13.412Z,18.849688
2023-04-17T16:09:15.118Z,19.645272
2023-04-17T16:14:16.898Z,19.476602
2023-04-17T16:19:18.354Z,19.212294
2023-04-17T16:24:20.184Z,19.120062
2023-04-17T16:29:21.734Z,19.392824
2023-04-17T16:34:23.280Z,19.114322
2023-04-17T16:39:24.913Z,18.443442
2023-04-17T16:44:26.538Z,17.82528
2023-04-17T16:49:28.206Z,18.550696
2023-04-17T16:54:29.783Z,18.732094
2023-04-17T16:59:31.374Z,17.602292
2023-04-17T17:04:33.053Z,17.704254
2023-04-17T17:09:34.665Z,16.194016
2023-04-17T17:14:36.276Z,17.146016
2023-04-17T17:19:37.807Z,17.049536
2023-04-17T17:24:39.137Z,17.22784
2023-04-17T17:29:40.458Z,17.440136
2023-04-17T17:34:41.781Z,17.263148
2023-04-17T17:39:43.243Z,17.133844
2023-04-17T17:44:44.547Z,17.246648
2023-04-17T17:49:45.941Z,16.8158
2023-04-17T17:54:47.352Z,16.983778
2023-04-17T17:59:48.821Z,16.720732
2023-04-17T18:04:50.372Z,16.342928
2023-04-17T18:09:52.189Z,16.426354
2023-04-17T18:14:53.782Z,16.368276
2023-04-17T18:19:55.350Z,16.82515
2023-04-17T18:24:56.919Z,16.432528
2023-04-17T18:29:58.474Z,16.493252
2023-04-17T18:35:00.061Z,16.120496
2023-04-17T18:40:01.705Z,15.821966
2023-04-17T18:45:03.270Z,15.958516
2023-04-17T18:50:04.757Z,15.93804
2023-04-17T18:55:06.345Z,15.25792
2023-04-17T19:00:07.935Z,15.062844
2023-04-17T19:05:09.448Z,15.173898
2023-04-17T19:10:11.022Z,15.240796
2023-04-17T19:15:12.507Z,15.2686
2023-04-17T19:20:13.934Z,15.060728
2023-04-17T19:25:15.417Z,15.108398
2023-04-17T19:30:16.930Z,15.287136
2023-04-17T19:35:18.507Z,15.36014
2023-04-17T19:40:25.044Z,14.475514
2023-04-17T19:45:27.451Z,14.744734
2023-04-17T19:50:29.072Z,15.031608
2023-04-17T19:55:30.381Z,14.887554
2023-04-17T20:00:32.093Z,14.835908
2023-04-17T20:05:33.347Z,14.360756
2023-04-17T20:10:34.787Z,12.444508
2023-04-17T20:15:36.347Z,13.867884
2023-04-17T20:20:37.887Z,14.678352
2023-04-17T20:25:39.213Z,13.32327
2023-04-17T20:30:40.513Z,14.34153
2023-04-17T20:35:42.161Z,13.332634
2023-04-17T20:40:43.738Z,13.537412
2023-04-17T20:45:44.957Z,12.903226
2023-04-17T20:50:46.435Z,13.183736
2023-04-17T20:55:47.767Z,12.976488
2023-04-17T21:01:00.543Z,12.42703
2023-04-17T21:06:03.026Z,12.933228
2023-04-17T21:11:04.492Z,12.757746
2023-04-17T21:16:05.909Z,12.002466
2023-04-17T21:21:07.312Z,11.92489
2023-04-17T21:26:08.673Z,12.506738
2023-04-17T21:31:10.334Z,12.647956
2023-04-17T21:36:12.001Z,12.359942
2023-04-17T21:41:13.601Z,12.764912
2023-04-17T21:46:15.238Z,12.916022
2023-04-17T21:51:16.836Z,12.236908
2023-04-17T21:56:18.423Z,12.613096
2023-04-17T22:01:20.070Z,11.152294
2023-04-17T22:06:21.652Z,12.227816
2023-04-17T22:11:23.031Z,12.725194
2023-04-17T22:16:24.345Z,11.660704
2023-04-17T22:21:25.913Z,11.580224
2023-04-17T22:26:27.908Z,12.470548
2023-04-17T22:31:29.605Z,11.128914
2023-04-17T22:36:31.098Z,11.25838
2023-04-17T22:41:32.611Z,11.51992
2023-04-17T22:46:33.967Z,11.742352
2023-04-17T22:51:35.442Z,11.5923
2023-04-17T22:56:36.816Z,11.29909
2023-04-17T23:01:38.411Z,11.342064
2023-04-17T23:06:39.984Z,11.597878
2023-04-17T23:11:41.376Z,11.098288
2023-04-17T23:16:42.929Z,11.696842
2023-04-17T23:21:44.473Z,11.45339
2023-04-17T23:26:46.350Z,10.905982
2023-04-17T23:31:47.804Z,11.050632
2023-04-17T23:36:49.552Z,11.594174
2023-04-17T23:41:51.147Z,10.708708
2023-04-17T23:46:52.800Z,10.430234
2023-04-17T23:51:54.395Z,10.90069
2023-04-17T23:56:55.987Z,10.232974
